createdAt,value
2019-03-16T00:00:02.389Z,58.47
2019-03-16T00:01:02.398Z,58.98
2019-03-16T00:02:02.361Z,59.19
2019-03-16T00:03:02.351Z,59.09
2019-03-16T00:04:02.339Z,58.65
2019-03-16T00:05:02.367Z,58.86
2019-03-16T00:06:02.333Z,59.06
2019-03-16T00:07:02.309Z,59.09
2019-03-16T00:08:02.306Z,59.06
2019-03-16T00:09:02.283Z,59.06
2019-03-16T00:10:02.276Z,58.89
2019-03-16T00:11:02.283Z,58.98
2019-03-16T00:12:02.405Z,58.89
2019-03-16T00:13:02.275Z,59.40
2019-03-16T00:14:02.234Z,58.89
2019-03-16T00:15:02.257Z,59.50
2019-03-16T00:16:02.230Z,59.40
2019-03-16T00:17:02.194Z,59.40
2019-03-16T00:18:02.191Z,59.50
2019-03-16T00:19:02.171Z,59.19
2019-03-16T00:20:02.170Z,59.09
2019-03-16T00:21:02.185Z,58.78
2019-03-16T00:22:02.170Z,59.06
2019-03-16T00:23:02.159Z,58.58
2019-03-16T00:24:02.115Z,58.89
2019-03-16T00:25:02.104Z,58.68
2019-03-16T00:26:02.104Z,58.98
2019-03-16T00:27:02.087Z,59.09
2019-03-16T00:28:02.084Z,58.58
2019-03-16T00:29:02.105Z,58.78
2019-03-16T00:30:02.064Z,58.68
2019-03-16T00:31:02.039Z,59.09
2019-03-16T00:32:12.789Z,58.78
2019-03-16T00:33:03.061Z,58.78
2019-03-16T00:34:02.009Z,59.50
2019-03-16T00:35:02.046Z,59.42
2019-03-16T00:36:01.985Z,59.09
2019-03-16T00:37:01.992Z,59.42
2019-03-16T00:38:01.981Z,59.30
2019-03-16T00:39:01.970Z,59.70
2019-03-16T00:40:01.980Z,59.09
2019-03-16T00:41:01.934Z,59.40
2019-03-16T00:42:01.917Z,59.74
2019-03-16T00:43:01.908Z,59.63
2019-03-16T00:44:01.909Z,59.84
2019-03-16T00:45:01.931Z,59.84
2019-03-16T00:46:01.882Z,59.94
2019-03-16T00:47:01.898Z,60.05
2019-03-16T00:48:01.865Z,60.05
2019-03-16T00:49:01.907Z,59.94
2019-03-16T00:50:01.845Z,59.84
2019-03-16T00:51:01.866Z,59.74
2019-03-16T00:52:01.820Z,60.25
2019-03-16T00:53:01.818Z,59.94
2019-03-16T00:54:01.792Z,60.35
2019-03-16T00:55:01.794Z,60.46
2019-03-16T00:56:01.818Z,60.35
2019-03-16T00:57:01.780Z,60.33
2019-03-16T00:58:01.753Z,60.77
2019-03-16T00:59:01.872Z,60.35
2019-03-16T01:00:01.725Z,60.25
2019-03-16T01:01:01.743Z,60.56
2019-03-16T01:02:01.839Z,60.66
2019-03-16T01:03:01.733Z,60.56
2019-03-16T01:04:01.689Z,60.56
2019-03-16T01:05:01.671Z,60.56
2019-03-16T01:06:01.665Z,60.87
2019-03-16T01:07:01.648Z,60.77
2019-03-16T01:08:01.681Z,60.97
2019-03-16T01:09:01.649Z,60.87
2019-03-16T01:10:01.626Z,61.07
2019-03-16T01:11:01.614Z,60.87
2019-03-16T01:12:01.595Z,61.18
2019-03-16T01:13:01.587Z,61.07
2019-03-16T01:14:01.594Z,61.28
2019-03-16T01:15:01.584Z,61.59
2019-03-16T01:16:01.550Z,61.49
2019-03-16T01:17:01.537Z,61.90
2019-03-16T01:18:01.553Z,61.59
2019-03-16T01:19:01.529Z,61.61
2019-03-16T01:20:01.535Z,61.82
2019-03-16T01:21:01.503Z,62.03
2019-03-16T01:22:01.491Z,62.24
2019-03-16T01:23:01.475Z,62.21
2019-03-16T01:24:01.471Z,61.80
2019-03-16T01:25:01.476Z,62.21
2019-03-16T01:26:01.441Z,62.10
2019-03-16T01:27:01.431Z,62.31
2019-03-16T01:28:01.418Z,62.00
2019-03-16T01:29:01.405Z,62.41
2019-03-16T01:30:01.449Z,62.10
2019-03-16T01:31:01.389Z,62.31
2019-03-16T01:32:01.389Z,62.10
2019-03-16T01:33:01.372Z,62.31
2019-03-16T01:34:01.356Z,62.41
2019-03-16T01:35:01.351Z,62.41
2019-03-16T01:36:01.373Z,62.82
2019-03-16T01:37:01.327Z,62.93
2019-03-16T01:38:01.333Z,62.65
2019-03-16T01:39:01.299Z,62.65
2019-03-16T01:40:01.318Z,62.72
2019-03-16T01:41:01.276Z,63.03
2019-03-16T01:42:01.319Z,63.17
2019-03-16T01:43:01.266Z,63.06
2019-03-16T01:44:01.267Z,63.54
2019-03-16T01:45:01.265Z,63.37
2019-03-16T01:46:01.226Z,63.54
2019-03-16T01:47:01.242Z,63.06
2019-03-16T01:48:01.201Z,63.06
2019-03-16T01:49:01.199Z,63.45
2019-03-16T01:50:01.194Z,63.03
2019-03-16T01:51:01.175Z,63.03
2019-03-16T01:52:01.208Z,63.34
2019-03-16T01:53:01.146Z,63.03
2019-03-16T01:54:01.139Z,63.24
2019-03-16T01:55:01.154Z,63.78
2019-03-16T01:56:01.129Z,63.68
2019-03-16T01:57:01.109Z,64.27
2019-03-16T01:58:01.113Z,63.99
2019-03-16T01:59:01.100Z,63.78
2019-03-16T02:00:01.070Z,64.06
2019-03-16T02:01:01.064Z,63.54
2019-03-16T02:02:01.063Z,64.09
2019-03-16T02:03:01.077Z,64.19
2019-03-16T02:04:01.039Z,63.78
2019-03-16T02:05:01.024Z,64.19
2019-03-16T02:06:01.007Z,63.99
2019-03-16T02:07:00.990Z,64.40
2019-03-16T02:08:00.984Z,64.29
2019-03-16T02:09:00.996Z,64.19
2019-03-16T02:10:00.961Z,63.99
2019-03-16T02:11:00.955Z,63.85
2019-03-16T02:12:00.962Z,64.17
2019-03-16T02:13:00.927Z,63.89
2019-03-16T02:14:00.952Z,63.78
2019-03-16T02:15:00.922Z,63.78
2019-03-16T02:16:10.797Z,63.99
2019-03-16T02:17:01.887Z,63.96
2019-03-16T02:18:00.888Z,63.78
2019-03-16T02:19:00.892Z,63.75
2019-03-16T02:20:00.855Z,63.89
2019-03-16T02:21:00.844Z,63.57
2019-03-16T02:22:00.838Z,64.19
2019-03-16T02:23:00.826Z,64.09
2019-03-16T02:24:00.842Z,63.78
2019-03-16T02:25:00.801Z,63.89
2019-03-16T02:26:00.861Z,63.57
2019-03-16T02:27:00.793Z,63.37
2019-03-16T02:28:00.771Z,63.78
2019-03-16T02:29:00.770Z,63.47
2019-03-16T02:30:00.780Z,63.68
2019-03-16T02:31:00.733Z,63.57
2019-03-16T02:32:00.731Z,63.37
2019-03-16T02:33:12.785Z,63.78
2019-03-16T02:34:01.722Z,63.47
2019-03-16T02:35:00.723Z,63.78
2019-03-16T02:36:00.687Z,63.78
2019-03-16T02:37:00.682Z,64.09
2019-03-16T02:38:00.714Z,64.19
2019-03-16T02:39:00.688Z,63.57
2019-03-16T02:40:00.758Z,63.57
2019-03-16T02:41:00.642Z,64.29
2019-03-16T02:42:00.689Z,63.57
2019-03-16T02:43:00.630Z,63.68
2019-03-16T02:44:00.910Z,63.06
2019-03-16T02:45:00.617Z,63.06
2019-03-16T02:46:00.619Z,63.37
2019-03-16T02:47:00.593Z,63.78
2019-03-16T02:48:00.669Z,63.57
2019-03-16T02:49:00.588Z,63.99
2019-03-16T02:50:00.730Z,63.99
2019-03-16T02:51:00.666Z,63.57
2019-03-16T02:52:00.516Z,63.99
2019-03-16T02:53:00.547Z,64.09
2019-03-16T02:54:00.515Z,64.09
2019-03-16T02:55:00.639Z,64.09
2019-03-16T02:56:00.533Z,64.19
2019-03-16T02:57:00.586Z,64.19
2019-03-16T02:58:00.485Z,63.99
2019-03-16T02:59:00.477Z,63.57
2019-03-16T03:00:00.562Z,63.89
2019-03-16T03:01:00.433Z,63.37
2019-03-16T03:02:01.207Z,63.47
2019-03-16T03:03:00.411Z,63.47
2019-03-16T03:04:00.367Z,63.89
2019-03-16T03:05:00.695Z,64.19
2019-03-16T03:06:01.136Z,63.27
2019-03-16T03:07:00.397Z,63.57
2019-03-16T03:08:00.351Z,63.89
2019-03-16T03:09:00.341Z,64.29
2019-03-16T03:10:00.455Z,63.99
2019-03-16T03:11:00.323Z,63.99
2019-03-16T03:12:00.480Z,64.09
2019-03-16T03:13:00.312Z,63.78
2019-03-16T03:14:00.291Z,64.61
2019-03-16T03:15:00.703Z,64.29
2019-03-16T03:16:00.290Z,64.40
2019-03-16T03:17:00.229Z,64.50
2019-03-16T03:18:00.229Z,64.64
2019-03-16T03:19:00.209Z,65.05
2019-03-16T03:20:00.480Z,64.29
2019-03-16T03:21:00.197Z,64.61
2019-03-16T03:22:00.209Z,63.68
2019-03-16T03:23:00.171Z,64.50
2019-03-16T03:24:00.152Z,64.61
2019-03-16T03:25:00.354Z,65.02
2019-03-16T03:26:00.161Z,64.92
2019-03-16T03:27:00.182Z,64.92
2019-03-16T03:28:00.158Z,64.95
2019-03-16T03:29:09.202Z,64.92
2019-03-16T03:30:09.230Z,65.22
2019-03-16T03:31:00.073Z,65.12
2019-03-16T03:32:08.696Z,65.12
2019-03-16T03:33:00.074Z,65.12
2019-03-16T03:34:02.535Z,64.81
2019-03-16T03:35:00.034Z,64.81
2019-03-16T03:36:00.017Z,64.81
2019-03-16T03:37:00.002Z,64.81
2019-03-16T03:38:00.026Z,64.29
2019-03-16T03:38:59.989Z,64.58
2019-03-16T03:39:59.972Z,64.71
2019-03-16T03:41:01.924Z,64.71
2019-03-16T03:41:59.960Z,64.40
2019-03-16T03:42:59.971Z,64.92
2019-03-16T03:43:59.943Z,64.61
2019-03-16T03:44:59.945Z,64.61
2019-03-16T03:45:59.952Z,64.19
2019-03-16T03:46:59.907Z,64.29
2019-03-16T03:47:59.946Z,64.40
2019-03-16T03:48:59.908Z,64.81
2019-03-16T03:49:59.873Z,65.02
2019-03-16T03:50:59.859Z,64.92
2019-03-16T03:51:59.866Z,65.12
2019-03-16T03:52:59.877Z,65.02
2019-03-16T03:53:59.869Z,65.12
2019-03-16T03:54:59.931Z,64.92
2019-03-16T03:55:59.861Z,64.92
2019-03-16T03:56:59.809Z,64.92
2019-03-16T03:57:59.794Z,64.71
2019-03-16T03:58:59.781Z,65.12
2019-03-16T03:59:59.778Z,65.33
2019-03-16T04:00:59.786Z,65.02
2019-03-16T04:01:59.738Z,65.12
2019-03-16T04:02:59.727Z,65.53
2019-03-16T04:04:14.335Z,65.64
2019-03-16T04:05:00.725Z,65.53
2019-03-16T04:05:59.703Z,65.67
2019-03-16T04:06:59.718Z,66.18
2019-03-16T04:07:59.670Z,65.77
2019-03-16T04:08:59.661Z,66.15
2019-03-16T04:09:59.665Z,65.43
2019-03-16T04:10:59.684Z,65.64
2019-03-16T04:11:59.636Z,65.22
2019-03-16T04:12:59.623Z,66.25
2019-03-16T04:13:59.605Z,65.98
2019-03-16T04:14:59.652Z,66.05
2019-03-16T04:15:59.599Z,65.95
2019-03-16T04:16:59.585Z,66.05
2019-03-16T04:17:59.568Z,65.95
2019-03-16T04:18:59.558Z,66.25
2019-03-16T04:19:59.540Z,66.05
2019-03-16T04:20:59.562Z,65.95
2019-03-16T04:21:59.527Z,65.74
2019-03-16T04:22:59.507Z,65.95
2019-03-16T04:23:59.519Z,65.84
2019-03-16T04:24:59.493Z,65.74
2019-03-16T04:25:59.502Z,65.95
2019-03-16T04:27:14.636Z,66.05
2019-03-16T04:28:00.480Z,65.95
2019-03-16T04:28:59.458Z,66.28
2019-03-16T04:29:59.443Z,66.39
2019-03-16T04:30:59.430Z,66.70
2019-03-16T04:31:59.413Z,67.32
2019-03-16T04:32:59.423Z,67.11
2019-03-16T04:33:59.390Z,67.11
2019-03-16T04:34:59.379Z,66.80
2019-03-16T04:35:59.372Z,66.91
2019-03-16T04:36:59.359Z,66.56
2019-03-16T04:37:59.375Z,66.80
2019-03-16T04:38:59.370Z,67.21
2019-03-16T04:39:59.330Z,67.11
2019-03-16T04:40:59.321Z,66.49
2019-03-16T04:41:59.315Z,66.70
2019-03-16T04:42:59.291Z,66.60
2019-03-16T04:43:59.302Z,66.70
2019-03-16T04:44:59.271Z,66.60
2019-03-16T04:45:59.257Z,66.70
2019-03-16T04:46:59.240Z,67.00
2019-03-16T04:47:59.242Z,67.21
2019-03-16T04:48:59.252Z,67.11
2019-03-16T04:49:59.226Z,67.11
2019-03-16T04:50:59.211Z,66.91
2019-03-16T04:51:59.263Z,66.49
2019-03-16T04:52:59.178Z,67.42
2019-03-16T04:53:59.221Z,67.42
2019-03-16T04:54:59.159Z,67.00
2019-03-16T04:55:59.229Z,67.21
2019-03-16T04:56:59.155Z,67.11
2019-03-16T04:57:59.135Z,67.11
2019-03-16T04:58:59.123Z,66.91
2019-03-16T04:59:59.144Z,66.39
2019-03-16T05:00:59.108Z,66.80
2019-03-16T05:01:59.091Z,66.91
2019-03-16T05:02:59.077Z,67.11
2019-03-16T05:03:59.064Z,66.60
2019-03-16T05:04:59.084Z,66.70
2019-03-16T05:05:59.037Z,67.11
2019-03-16T05:06:59.059Z,67.00
2019-03-16T05:07:59.111Z,67.11
2019-03-16T05:08:59.011Z,67.11
2019-03-16T05:09:59.023Z,67.00
2019-03-16T05:10:59.014Z,66.91
2019-03-16T05:11:58.976Z,66.80
2019-03-16T05:12:58.960Z,67.73
2019-03-16T05:13:59.036Z,67.42
2019-03-16T05:14:58.954Z,67.42
2019-03-16T05:15:58.956Z,67.32
2019-03-16T05:16:58.917Z,67.66
2019-03-16T05:17:58.908Z,67.52
2019-03-16T05:18:58.902Z,67.32
2019-03-16T05:19:58.903Z,67.32
2019-03-16T05:20:58.912Z,67.42
2019-03-16T05:21:58.867Z,67.42
2019-03-16T05:22:58.881Z,67.32
2019-03-16T05:23:58.839Z,67.63
2019-03-16T05:24:58.831Z,67.21
2019-03-16T05:25:58.844Z,66.70
2019-03-16T05:26:58.827Z,66.60
2019-03-16T05:27:58.885Z,66.91
2019-03-16T05:28:58.794Z,66.80
2019-03-16T05:29:58.872Z,67.00
2019-03-16T05:30:58.919Z,66.87
2019-03-16T05:31:58.773Z,66.25
2019-03-16T05:32:58.761Z,66.97
2019-03-16T05:33:58.784Z,66.67
2019-03-16T05:34:58.812Z,66.87
2019-03-16T05:35:58.870Z,67.18
2019-03-16T05:36:58.789Z,67.08
2019-03-16T05:37:58.752Z,67.00
2019-03-16T05:38:58.674Z,67.11
2019-03-16T05:39:58.739Z,66.87
2019-03-16T05:40:58.718Z,66.97
2019-03-16T05:41:58.743Z,66.87
2019-03-16T05:42:58.673Z,66.25
2019-03-16T05:43:58.674Z,66.97
2019-03-16T05:44:58.609Z,66.97
2019-03-16T05:45:58.628Z,66.36
2019-03-16T05:46:58.711Z,67.42
2019-03-16T05:47:58.578Z,67.21
2019-03-16T05:48:58.574Z,67.42
2019-03-16T05:49:58.566Z,67.32
2019-03-16T05:50:58.553Z,67.32
2019-03-16T05:51:58.541Z,67.52
2019-03-16T05:52:58.550Z,67.52
2019-03-16T05:53:58.546Z,67.11
2019-03-16T05:54:58.501Z,67.42
2019-03-16T05:55:58.499Z,67.21
2019-03-16T05:56:58.571Z,67.49
2019-03-16T05:57:58.468Z,67.49
2019-03-16T05:58:58.482Z,67.42
2019-03-16T05:59:58.453Z,67.49
2019-03-16T06:00:58.433Z,67.49
2019-03-16T06:01:58.427Z,67.49
2019-03-16T06:02:58.419Z,66.67
2019-03-16T06:03:58.425Z,66.97
2019-03-16T06:05:09.881Z,67.39
2019-03-16T06:06:49.812Z,67.18
2019-03-16T06:07:49.800Z,66.94
2019-03-16T06:08:49.904Z,67.18
2019-03-16T06:09:49.821Z,66.53
2019-03-16T06:10:49.788Z,66.22
2019-03-16T06:11:49.759Z,66.33
2019-03-16T06:12:49.754Z,66.33
2019-03-16T06:13:49.737Z,66.22
2019-03-16T06:14:49.766Z,66.22
2019-03-16T06:15:49.716Z,65.92
2019-03-16T06:16:49.700Z,65.71
2019-03-16T06:17:49.698Z,66.02
2019-03-16T06:18:49.685Z,65.89
2019-03-16T06:19:49.685Z,66.09
2019-03-16T06:20:49.685Z,65.89
2019-03-16T06:21:49.649Z,66.09
2019-03-16T06:22:49.643Z,65.47
2019-03-16T06:23:49.713Z,65.68
2019-03-16T06:24:49.627Z,65.37
2019-03-16T06:25:49.630Z,65.58
2019-03-16T06:26:49.601Z,65.37
2019-03-16T06:27:49.581Z,65.68
2019-03-16T06:28:49.570Z,65.16
2019-03-16T06:29:49.589Z,65.03
2019-03-16T06:30:49.604Z,65.06
2019-03-16T06:31:49.543Z,64.65
2019-03-16T06:32:49.540Z,64.83
2019-03-16T06:33:49.615Z,64.72
2019-03-16T06:34:49.510Z,64.28
2019-03-16T06:35:49.511Z,64.62
2019-03-16T06:36:49.545Z,64.11
2019-03-16T06:37:49.482Z,64.62
2019-03-16T06:38:49.471Z,64.51
2019-03-16T06:39:49.490Z,64.83
2019-03-16T06:40:49.460Z,64.07
2019-03-16T06:41:49.454Z,64.62
2019-03-16T06:42:49.424Z,64.28
2019-03-16T06:43:49.416Z,64.41
2019-03-16T06:44:49.408Z,64.21
2019-03-16T06:45:49.391Z,64.21
2019-03-16T06:46:49.403Z,64.18
2019-03-16T06:47:49.368Z,64.07
2019-03-16T06:48:49.378Z,63.90
2019-03-16T06:49:49.358Z,64.51
2019-03-16T06:50:49.339Z,63.67
2019-03-16T06:51:49.339Z,65.03
2019-03-16T06:52:49.321Z,64.28
2019-03-16T06:53:49.328Z,64.11
2019-03-16T06:54:49.292Z,64.31
2019-03-16T06:55:49.281Z,64.07
2019-03-16T06:56:49.294Z,64.62
2019-03-16T06:57:49.329Z,64.28
2019-03-16T06:58:49.257Z,64.39
2019-03-16T06:59:49.266Z,64.28
2019-03-16T07:00:49.228Z,64.59
2019-03-16T07:01:49.222Z,64.18
2019-03-16T07:02:49.219Z,64.18
2019-03-16T07:03:49.265Z,64.28
2019-03-16T07:04:49.220Z,64.28
2019-03-16T07:05:49.175Z,64.39
2019-03-16T07:06:49.164Z,64.07
2019-03-16T07:07:49.161Z,64.04
2019-03-16T07:08:49.143Z,64.15
2019-03-16T07:09:49.139Z,63.64
2019-03-16T07:10:49.149Z,63.84
2019-03-16T07:11:49.128Z,62.78
2019-03-16T07:12:49.106Z,63.43
2019-03-16T07:13:49.108Z,62.92
2019-03-16T07:14:49.098Z,62.58
2019-03-16T07:15:49.101Z,62.37
2019-03-16T07:17:01.520Z,63.09
2019-03-16T07:17:50.046Z,62.37
2019-03-16T07:18:58.263Z,62.14
2019-03-16T07:19:50.044Z,62.14
2019-03-16T07:20:49.018Z,62.45
2019-03-16T07:21:49.010Z,62.55
2019-03-16T07:22:49.001Z,62.04
2019-03-16T07:23:49.011Z,61.90
2019-03-16T07:24:51.551Z,61.21
2019-03-16T07:25:48.964Z,61.72
2019-03-16T07:26:48.980Z,61.62
2019-03-16T07:27:48.948Z,61.72
2019-03-16T07:28:48.930Z,62.04
2019-03-16T07:29:48.922Z,61.80
2019-03-16T07:30:48.924Z,62.04
2019-03-16T07:31:48.898Z,61.93
2019-03-16T07:32:48.927Z,61.83
2019-03-16T07:33:48.881Z,61.70
2019-03-16T07:34:48.875Z,61.49
2019-03-16T07:35:48.863Z,61.39
2019-03-16T07:36:48.849Z,61.29
2019-03-16T07:37:48.844Z,61.49
2019-03-16T07:38:48.857Z,61.49
2019-03-16T07:39:48.815Z,61.49
2019-03-16T07:40:48.800Z,61.60
2019-03-16T07:41:48.796Z,61.18
2019-03-16T07:42:48.790Z,61.16
2019-03-16T07:43:48.796Z,60.95
2019-03-16T07:44:48.769Z,60.64
2019-03-16T07:45:48.760Z,60.44
2019-03-16T07:46:48.744Z,60.23
2019-03-16T07:47:48.734Z,60.10
2019-03-16T07:48:48.753Z,60.00
2019-03-16T07:49:48.706Z,59.80
2019-03-16T07:50:48.699Z,60.10
2019-03-16T07:51:48.689Z,59.80
2019-03-16T07:52:48.675Z,59.80
2019-03-16T07:53:48.671Z,59.66
2019-03-16T07:54:48.679Z,59.48
2019-03-16T07:55:48.650Z,59.48
2019-03-16T07:56:48.665Z,60.10
2019-03-16T07:57:48.624Z,59.89
2019-03-16T07:58:48.610Z,59.48
2019-03-16T07:59:48.662Z,59.46
2019-03-16T08:00:48.594Z,58.77
2019-03-16T08:01:48.584Z,60.00
2019-03-16T08:02:48.573Z,59.80
2019-03-16T08:03:48.557Z,59.92
2019-03-16T08:04:48.550Z,60.41
2019-03-16T08:05:48.560Z,60.31
2019-03-16T08:06:48.534Z,60.31
2019-03-16T08:07:48.664Z,60.41
2019-03-16T08:08:48.556Z,59.80
2019-03-16T08:09:48.527Z,59.46
2019-03-16T08:10:48.481Z,59.56
2019-03-16T08:11:48.468Z,59.56
2019-03-16T08:12:48.461Z,59.46
2019-03-16T08:13:48.450Z,59.77
2019-03-16T08:14:48.440Z,59.25
2019-03-16T08:15:48.474Z,59.05
2019-03-16T08:16:48.420Z,58.92
2019-03-16T08:17:48.403Z,58.51
2019-03-16T08:18:48.390Z,58.61
2019-03-16T08:19:48.390Z,58.92
2019-03-16T08:20:48.400Z,58.81
2019-03-16T08:21:48.396Z,58.40
2019-03-16T08:22:48.353Z,58.40
2019-03-16T08:23:48.340Z,58.72
2019-03-16T08:24:48.328Z,57.89
2019-03-16T08:25:48.331Z,58.20
2019-03-16T08:26:48.309Z,58.51
2019-03-16T08:27:53.942Z,58.92
2019-03-16T08:28:49.302Z,58.92
2019-03-16T08:29:48.271Z,58.81
2019-03-16T08:30:48.284Z,57.89
2019-03-16T08:31:48.265Z,58.00
2019-03-16T08:32:48.266Z,57.69
2019-03-16T08:33:48.232Z,58.10
2019-03-16T08:34:48.224Z,58.20
2019-03-16T08:35:48.226Z,58.20
2019-03-16T08:36:48.197Z,57.82
2019-03-16T08:37:48.200Z,58.54
2019-03-16T08:38:48.179Z,58.77
2019-03-16T08:39:48.190Z,58.84
2019-03-16T08:40:48.181Z,58.95
2019-03-16T08:41:48.140Z,58.64
2019-03-16T08:42:48.153Z,57.89
2019-03-16T08:43:48.122Z,57.82
2019-03-16T08:44:48.107Z,58.12
2019-03-16T08:45:48.166Z,58.64
2019-03-16T08:46:48.117Z,57.71
2019-03-16T08:47:48.083Z,57.92
2019-03-16T08:48:48.095Z,58.23
2019-03-16T08:49:48.055Z,58.23
2019-03-16T08:50:48.040Z,58.64
2019-03-16T08:51:48.101Z,58.20
2019-03-16T08:52:48.029Z,57.79
2019-03-16T08:53:48.019Z,57.28
2019-03-16T08:54:47.996Z,56.74
2019-03-16T08:55:48.020Z,57.76
2019-03-16T08:56:47.976Z,57.25
2019-03-16T08:57:48.003Z,56.43
2019-03-16T08:58:47.960Z,56.26
2019-03-16T08:59:47.959Z,56.13
2019-03-16T09:00:47.938Z,56.54
2019-03-16T09:01:47.922Z,56.54
2019-03-16T09:02:47.909Z,56.41
2019-03-16T09:03:47.935Z,56.20
2019-03-16T09:04:47.889Z,56.18
2019-03-16T09:05:47.884Z,54.00
2019-03-16T09:06:47.871Z,53.67
2019-03-16T09:07:47.855Z,53.13
2019-03-16T09:08:47.846Z,54.08
2019-03-16T09:09:47.861Z,54.41
2019-03-16T09:10:47.838Z,54.44
2019-03-16T09:11:47.822Z,54.33
2019-03-16T09:12:54.938Z,54.44
2019-03-16T09:13:48.791Z,54.51
2019-03-16T09:14:47.801Z,54.31
2019-03-16T09:15:47.773Z,54.28
2019-03-16T09:16:47.765Z,54.05
2019-03-16T09:17:47.781Z,53.44
2019-03-16T09:18:47.747Z,53.44
2019-03-16T09:19:47.763Z,53.47
2019-03-16T09:20:47.725Z,53.77
2019-03-16T09:21:47.708Z,53.44
2019-03-16T09:22:47.697Z,52.80
2019-03-16T09:23:47.689Z,52.80
2019-03-16T09:24:47.683Z,52.60
2019-03-16T09:25:47.710Z,52.80
2019-03-16T09:26:47.651Z,52.62
2019-03-16T09:27:47.647Z,53.03
2019-03-16T09:28:59.352Z,52.62
2019-03-16T09:29:48.623Z,53.16
2019-03-16T09:30:47.616Z,52.83
2019-03-16T09:31:47.603Z,52.65
2019-03-16T09:32:47.615Z,51.98
2019-03-16T09:33:47.598Z,51.15
2019-03-16T09:34:47.568Z,50.41
2019-03-16T09:35:47.580Z,50.74
2019-03-16T09:36:47.566Z,50.05
2019-03-16T09:37:47.563Z,49.87
2019-03-16T09:38:47.555Z,50.48
2019-03-16T09:39:47.512Z,50.28
2019-03-16T09:40:47.503Z,49.44
2019-03-16T09:41:47.497Z,48.83
2019-03-16T09:42:47.491Z,50.20
2019-03-16T09:43:47.510Z,50.53
2019-03-16T09:44:47.464Z,52.09
2019-03-16T09:45:47.451Z,52.09
2019-03-16T09:46:47.436Z,52.50
2019-03-16T09:47:47.426Z,51.65
2019-03-16T09:48:47.415Z,51.27
2019-03-16T09:49:47.445Z,51.48
2019-03-16T09:50:47.409Z,51.48
2019-03-16T09:51:47.389Z,51.89
2019-03-16T09:52:47.380Z,51.65
2019-03-16T09:53:47.360Z,50.61
2019-03-16T09:54:47.377Z,50.48
2019-03-16T09:55:47.347Z,50.51
2019-03-16T09:57:00.253Z,50.94
2019-03-16T09:57:48.318Z,51.22
2019-03-16T09:58:47.307Z,50.74
2019-03-16T09:59:47.329Z,49.98
2019-03-16T10:00:47.285Z,49.79
2019-03-16T10:01:47.281Z,50.00
2019-03-16T10:02:47.275Z,50.51
2019-03-16T10:03:47.264Z,50.12
2019-03-16T10:04:47.251Z,50.10
2019-03-16T10:05:47.262Z,50.33
2019-03-16T10:06:47.223Z,50.76
2019-03-16T10:07:47.211Z,50.66
2019-03-16T10:08:47.204Z,50.56
2019-03-16T10:09:47.200Z,49.92
2019-03-16T10:10:47.193Z,49.51
2019-03-16T10:11:47.192Z,49.69
2019-03-16T10:12:47.160Z,49.18
2019-03-16T10:13:47.158Z,49.08
2019-03-16T10:14:47.154Z,49.16
2019-03-16T10:15:47.131Z,48.55
2019-03-16T10:16:47.146Z,49.29
2019-03-16T10:17:47.104Z,49.18
2019-03-16T10:18:47.093Z,48.88
2019-03-16T10:19:47.081Z,49.84
2019-03-16T10:20:47.074Z,50.35
2019-03-16T10:21:47.970Z,50.96
2019-03-16T10:22:47.058Z,50.66
2019-03-16T10:23:47.048Z,50.66
2019-03-16T10:24:47.036Z,51.19
2019-03-16T10:25:47.019Z,52.22
2019-03-16T10:26:47.042Z,52.11
2019-03-16T10:27:47.030Z,51.70
2019-03-16T10:28:46.994Z,51.50
2019-03-16T10:29:46.988Z,50.27
2019-03-16T10:30:46.970Z,50.17
2019-03-16T10:31:47.010Z,50.23
2019-03-16T10:32:46.975Z,49.62
2019-03-16T10:33:46.953Z,49.02
2019-03-16T10:34:46.965Z,50.15
2019-03-16T10:35:46.916Z,50.25
2019-03-16T10:36:46.913Z,49.22
2019-03-16T10:37:46.903Z,50.17
2019-03-16T10:38:46.907Z,51.32
2019-03-16T10:39:46.868Z,51.32
2019-03-16T10:40:46.857Z,50.09
2019-03-16T10:41:46.855Z,50.09
2019-03-16T10:42:46.845Z,50.12
2019-03-16T10:43:46.860Z,50.42
2019-03-16T10:44:46.825Z,49.81
2019-03-16T10:45:46.818Z,50.34
2019-03-16T10:46:46.798Z,50.55
2019-03-16T10:47:46.810Z,50.65
2019-03-16T10:48:46.781Z,50.75
2019-03-16T10:49:46.792Z,51.37
2019-03-16T10:50:46.758Z,50.55
2019-03-16T10:51:46.742Z,50.57
2019-03-16T10:52:46.734Z,51.26
2019-03-16T10:53:46.726Z,50.96
2019-03-16T10:54:46.718Z,50.65
2019-03-16T10:55:46.737Z,50.73
2019-03-16T10:56:46.696Z,51.24
2019-03-16T10:57:46.676Z,50.63
2019-03-16T10:58:56.157Z,50.32
2019-03-16T10:59:47.684Z,50.01
2019-03-16T11:00:46.652Z,50.01
2019-03-16T11:01:46.635Z,49.91
2019-03-16T11:02:46.623Z,49.81
2019-03-16T11:03:46.612Z,50.04
2019-03-16T11:04:46.621Z,51.47
2019-03-16T11:05:46.628Z,50.75
2019-03-16T11:06:46.589Z,51.06
2019-03-16T11:07:46.576Z,51.04
2019-03-16T11:08:46.580Z,51.47
2019-03-16T11:09:46.547Z,51.65
2019-03-16T11:10:46.535Z,51.88
2019-03-16T11:11:46.550Z,51.98
2019-03-16T11:12:46.517Z,52.80
2019-03-16T11:13:46.532Z,52.70
2019-03-16T11:14:46.521Z,52.90
2019-03-16T11:15:46.486Z,53.31
2019-03-16T11:16:46.472Z,53.75
2019-03-16T11:17:46.467Z,54.36
2019-03-16T11:18:46.490Z,54.28
2019-03-16T11:19:46.454Z,56.26
2019-03-16T11:20:46.435Z,55.74
2019-03-16T11:21:46.424Z,56.05
2019-03-16T11:22:46.415Z,55.54
2019-03-16T11:23:46.431Z,55.21
2019-03-16T11:24:46.389Z,55.51
2019-03-16T11:25:46.383Z,55.94
2019-03-16T11:26:46.369Z,57.31
2019-03-16T11:27:46.362Z,56.38
2019-03-16T11:28:46.348Z,56.07
2019-03-16T11:29:46.355Z,54.85
2019-03-16T11:30:46.345Z,54.33
2019-03-16T11:31:46.316Z,55.26
2019-03-16T11:32:46.311Z,56.10
2019-03-16T11:33:48.431Z,55.38
2019-03-16T11:34:46.279Z,57.15
2019-03-16T11:35:46.295Z,57.77
2019-03-16T11:36:46.260Z,57.26
2019-03-16T11:37:46.251Z,56.74
2019-03-16T11:38:46.241Z,56.02
2019-03-16T11:39:46.230Z,55.21
2019-03-16T11:40:46.219Z,56.02
2019-03-16T11:41:46.240Z,55.64
2019-03-16T11:42:46.196Z,56.87
2019-03-16T11:43:46.181Z,57.08
2019-03-16T11:44:46.173Z,56.79
2019-03-16T11:45:46.167Z,56.36
2019-03-16T11:46:46.166Z,56.56
2019-03-16T11:47:46.276Z,57.18
2019-03-16T11:48:46.131Z,57.49
2019-03-16T11:49:46.123Z,56.46
2019-03-16T11:50:48.809Z,56.98
2019-03-16T11:51:46.104Z,57.49
2019-03-16T11:52:46.121Z,57.49
2019-03-16T11:53:46.080Z,58.11
2019-03-16T11:54:46.065Z,59.36
2019-03-16T11:55:46.054Z,59.59
2019-03-16T11:56:46.047Z,60.63
2019-03-16T11:57:46.067Z,61.35
2019-03-16T11:58:46.033Z,62.16
2019-03-16T11:59:46.020Z,62.37
2019-03-16T12:00:46.043Z,62.27
2019-03-16T12:01:45.994Z,62.06
2019-03-16T12:02:46.002Z,62.16
2019-03-16T12:03:45.977Z,62.16
2019-03-16T12:04:45.966Z,62.27
2019-03-16T12:06:42.063Z,62.88
2019-03-16T12:07:42.068Z,64.04
2019-03-16T12:08:42.056Z,65.17
2019-03-16T12:09:42.025Z,66.10
2019-03-16T12:10:42.009Z,65.89
2019-03-16T12:11:42.012Z,65.59
2019-03-16T12:12:42.177Z,65.80
2019-03-16T12:13:43.945Z,66.31
2019-03-16T12:14:41.977Z,66.10
2019-03-16T12:15:41.961Z,66.51
2019-03-16T12:16:41.946Z,67.33
2019-03-16T12:17:41.965Z,67.36
2019-03-16T12:18:41.928Z,67.44
2019-03-16T12:19:41.941Z,67.33
2019-03-16T12:20:41.910Z,67.75
2019-03-16T12:21:41.900Z,67.36
2019-03-16T12:22:41.901Z,66.61
2019-03-16T12:23:41.880Z,66.64
2019-03-16T12:24:41.859Z,67.78
2019-03-16T12:25:41.876Z,70.59
2019-03-16T12:26:41.844Z,71.51
2019-03-16T12:27:41.840Z,72.75
2019-03-16T12:28:41.821Z,72.96
2019-03-16T12:29:41.807Z,73.16
2019-03-16T12:30:41.834Z,73.06
2019-03-16T12:31:41.808Z,71.72
2019-03-16T12:32:41.791Z,71.41
2019-03-16T12:33:41.772Z,71.72
2019-03-16T12:34:41.757Z,71.82
2019-03-16T12:35:41.782Z,72.06
2019-03-16T12:36:41.741Z,72.88
2019-03-16T12:37:41.733Z,72.27
2019-03-16T12:38:41.735Z,73.91
2019-03-16T12:39:41.735Z,74.33
2019-03-16T12:40:41.697Z,75.87
2019-03-16T12:41:41.713Z,75.84
2019-03-16T12:42:41.679Z,75.12
2019-03-16T12:43:41.688Z,73.47
2019-03-16T12:44:41.656Z,72.99
2019-03-16T12:45:41.643Z,74.12
2019-03-16T12:46:41.629Z,76.42
2019-03-16T12:47:41.646Z,76.63
2019-03-16T12:48:41.614Z,76.42
2019-03-16T12:49:41.625Z,76.42
2019-03-16T12:50:41.604Z,77.45
2019-03-16T12:51:41.581Z,77.62
2019-03-16T12:52:41.589Z,78.14
2019-03-16T12:53:41.582Z,78.24